createdAt,value
2018-02-04T00:00:58.370Z,1.69
2018-02-04T00:02:07.568Z,1.66
2018-02-04T00:03:16.670Z,1.59
2018-02-04T00:04:25.498Z,1.54
2018-02-04T00:05:34.322Z,1.73
2018-02-04T00:06:43.424Z,1.98
2018-02-04T00:07:52.348Z,1.86
2018-02-04T00:09:01.175Z,1.88
2018-02-04T00:10:10.003Z,1.83
2018-02-04T00:11:18.833Z,1.86
2018-02-04T00:12:27.658Z,1.77
2018-02-04T00:13:36.485Z,1.76
2018-02-04T00:14:45.584Z,1.76
2018-02-04T00:15:54.410Z,1.76
2018-02-04T00:17:03.234Z,1.98
2018-02-04T00:18:12.059Z,1.76
2018-02-04T00:19:20.939Z,1.81
2018-02-04T00:20:29.765Z,1.7
2018-02-04T00:21:38.590Z,1.69
2018-02-04T00:22:47.416Z,1.69
2018-02-04T00:23:56.239Z,1.72
2018-02-04T00:25:05.763Z,1.68
2018-02-04T00:26:14.866Z,1.98
2018-02-04T00:27:23.701Z,1.79
2018-02-04T00:28:32.524Z,1.73
2018-02-04T00:29:41.351Z,1.77
2018-02-04T00:30:50.376Z,1.63
2018-02-04T00:31:59.203Z,1.76
2018-02-04T00:33:08.030Z,1.65
2018-02-04T00:34:16.853Z,1.63
2018-02-04T00:35:25.679Z,1.76
2018-02-04T00:36:34.507Z,1.77
2018-02-04T00:37:43.334Z,1.86
2018-02-04T00:38:52.430Z,1.81
2018-02-04T00:40:01.258Z,1.98
2018-02-04T00:41:10.083Z,1.88
2018-02-04T00:42:18.909Z,1.79
2018-02-04T00:43:28.005Z,2.05
2018-02-04T00:44:36.831Z,2.1
2018-02-04T00:45:45.658Z,1.88
2018-02-04T00:46:54.483Z,2
2018-02-04T00:48:03.557Z,1.9
2018-02-04T00:49:12.385Z,1.76
2018-02-04T00:50:21.209Z,1.73
2018-02-04T00:51:30.038Z,1.98
2018-02-04T00:52:38.866Z,1.81
2018-02-04T00:53:48.065Z,1.86
2018-02-04T00:54:56.893Z,1.66
2018-02-04T00:56:05.714Z,1.66
2018-02-04T00:57:14.542Z,1.88
2018-02-04T00:58:23.638Z,1.76
2018-02-04T00:59:32.463Z,1.73
2018-02-04T01:00:41.288Z,2.35
2018-02-04T01:01:50.114Z,2.02
2018-02-04T01:02:59.216Z,1.83
2018-02-04T01:04:08.041Z,1.66
2018-02-04T01:05:16.917Z,1.62
2018-02-04T01:06:25.743Z,1.6
2018-02-04T01:07:34.847Z,1.58
2018-02-04T01:08:43.677Z,1.65
2018-02-04T01:09:52.497Z,2.05
2018-02-04T01:11:01.472Z,1.93
2018-02-04T01:12:10.297Z,1.73
2018-02-04T01:13:19.120Z,1.99
2018-02-04T01:14:27.944Z,1.86
2018-02-04T01:15:36.772Z,1.79
2018-02-04T01:16:45.748Z,1.81
2018-02-04T01:17:54.851Z,1.91
2018-02-04T01:19:03.692Z,1.72
2018-02-04T01:20:12.501Z,1.98
2018-02-04T01:21:21.327Z,2.03
2018-02-04T01:22:30.450Z,1.99
2018-02-04T01:23:39.277Z,2.1
2018-02-04T01:24:48.103Z,1.88
2018-02-04T01:25:56.929Z,1.8
2018-02-04T01:27:06.031Z,1.99
2018-02-04T01:28:14.858Z,1.98
2018-02-04T01:29:23.685Z,1.83
2018-02-04T01:30:32.512Z,1.84
2018-02-04T01:31:41.337Z,1.83
2018-02-04T01:32:50.166Z,1.9
2018-02-04T01:33:59.141Z,1.95
2018-02-04T01:35:07.964Z,1.8
2018-02-04T01:36:16.789Z,1.84
2018-02-04T01:37:25.618Z,1.93
2018-02-04T01:38:34.439Z,1.8
2018-02-04T01:39:43.266Z,1.76
2018-02-04T01:40:52.090Z,1.73
2018-02-04T01:42:01.195Z,1.99
2018-02-04T01:43:10.022Z,2
2018-02-04T01:44:18.851Z,2.05
2018-02-04T01:45:27.777Z,1.87
2018-02-04T01:46:36.603Z,1.8
2018-02-04T01:47:45.698Z,2.3
2018-02-04T01:48:54.527Z,2.09
2018-02-04T01:50:03.354Z,1.93
2018-02-04T01:51:12.505Z,1.81
2018-02-04T01:52:21.335Z,1.76
2018-02-04T01:53:30.435Z,1.88
2018-02-04T01:54:39.260Z,1.8
2018-02-04T01:55:48.087Z,1.73
2018-02-04T01:56:57.063Z,1.76
2018-02-04T01:58:05.891Z,1.76
2018-02-04T01:59:14.716Z,1.79
2018-02-04T02:00:23.543Z,1.63
2018-02-04T02:01:32.369Z,1.77
2018-02-04T02:02:41.498Z,1.8
2018-02-04T02:03:50.323Z,1.7
2018-02-04T02:04:59.149Z,1.66
2018-02-04T02:06:07.981Z,1.7
2018-02-04T02:07:17.087Z,1.76
2018-02-04T02:08:25.912Z,1.8
2018-02-04T02:09:35.010Z,1.68
2018-02-04T02:10:43.835Z,1.62
2018-02-04T02:11:52.662Z,1.73
2018-02-04T02:13:01.490Z,1.58
2018-02-04T02:14:10.319Z,2.03
2018-02-04T02:15:19.144Z,1.84
2018-02-04T02:16:27.969Z,1.79
2018-02-04T02:17:37.068Z,2
2018-02-04T02:18:45.897Z,2.02
2018-02-04T02:19:54.822Z,2
2018-02-04T02:21:03.650Z,1.77
2018-02-04T02:22:12.751Z,1.83
2018-02-04T02:23:21.577Z,1.63
2018-02-04T02:24:30.453Z,1.62
2018-02-04T02:25:39.479Z,1.48
2018-02-04T02:26:48.308Z,1.52
2018-02-04T02:27:57.134Z,1.42
2018-02-04T02:29:05.963Z,1.44
2018-02-04T02:30:14.791Z,1.42
2018-02-04T02:31:23.917Z,1.48
2018-02-04T02:32:32.742Z,1.52
2018-02-04T02:33:41.569Z,1.55
2018-02-04T02:34:50.397Z,1.87
2018-02-04T02:35:59.222Z,1.77
2018-02-04T02:37:08.054Z,1.55
2018-02-04T02:38:17.155Z,1.45
2018-02-04T02:39:25.982Z,1.42
2018-02-04T02:40:35.090Z,1.42
2018-02-04T02:41:43.913Z,1.41
2018-02-04T02:42:52.870Z,1.27
2018-02-04T02:44:01.949Z,1.34
2018-02-04T02:45:11.048Z,1.18
2018-02-04T02:46:19.873Z,1.16
2018-02-04T02:47:29.252Z,1.16
2018-02-04T02:48:38.077Z,1.48
2018-02-04T02:49:46.912Z,1.6
2018-02-04T02:50:55.732Z,1.48
2018-02-04T02:52:04.836Z,1.65
2018-02-04T02:53:13.660Z,1.37
2018-02-04T02:54:22.587Z,1.27
2018-02-04T02:55:31.410Z,1.52
2018-02-04T02:56:40.237Z,1.36
2018-02-04T02:57:49.061Z,1.42
2018-02-04T02:58:57.889Z,1.3
2018-02-04T03:00:06.968Z,1.3
2018-02-04T03:01:15.793Z,1.3
2018-02-04T03:02:24.619Z,1.15
2018-02-04T03:03:33.445Z,1.15
2018-02-04T03:04:42.270Z,1.06
2018-02-04T03:05:51.296Z,1.11
2018-02-04T03:07:00.399Z,1.08
2018-02-04T03:08:09.502Z,1.06
2018-02-04T03:09:18.328Z,1.02
2018-02-04T03:10:27.156Z,1.12
2018-02-04T03:11:36.283Z,1.11
2018-02-04T03:12:45.111Z,1.09
2018-02-04T03:13:53.935Z,1.15
2018-02-04T03:15:02.765Z,1.09
2018-02-04T03:16:11.593Z,1.11
2018-02-04T03:17:20.568Z,1.11
2018-02-04T03:18:29.393Z,1.22
2018-02-04T03:19:38.220Z,1.14
2018-02-04T03:20:47.048Z,1.14
2018-02-04T03:21:55.871Z,1.16
2018-02-04T03:23:04.850Z,1.36
2018-02-04T03:24:13.673Z,1.32
2018-02-04T03:25:22.502Z,1.29
2018-02-04T03:26:31.336Z,1.26
2018-02-04T03:27:40.441Z,1.22
2018-02-04T03:28:49.315Z,1.33
2018-02-04T03:29:58.140Z,1.41
2018-02-04T03:31:06.972Z,1.48
2018-02-04T03:32:15.796Z,1.4
2018-02-04T03:33:24.622Z,1.45
2018-02-04T03:34:33.449Z,1.42
2018-02-04T03:35:42.276Z,1.5
2018-02-04T03:36:51.102Z,1.47
2018-02-04T03:37:59.929Z,1.62
2018-02-04T03:39:08.758Z,1.6
2018-02-04T03:40:17.581Z,1.54
2018-02-04T03:41:26.408Z,1.62
2018-02-04T03:42:35.235Z,1.42
2018-02-04T03:43:44.061Z,1.54
2018-02-04T03:44:52.890Z,1.54
2018-02-04T03:46:01.716Z,1.73
2018-02-04T03:47:10.541Z,1.58
2018-02-04T03:48:19.367Z,1.34
2018-02-04T03:49:28.194Z,1.3
2018-02-04T03:50:37.022Z,1.24
2018-02-04T03:51:45.847Z,1.15
2018-02-04T03:52:54.675Z,1.16
2018-02-04T03:54:03.502Z,1.2
2018-02-04T03:55:12.329Z,1.08
2018-02-04T03:56:21.432Z,1.08
2018-02-04T03:57:30.558Z,1.15
2018-02-04T03:58:39.386Z,1.06
2018-02-04T03:59:48.212Z,1.14
2018-02-04T04:00:57.039Z,1.22
2018-02-04T04:02:05.864Z,1.14
2018-02-04T04:03:14.689Z,1.08
2018-02-04T04:04:23.517Z,1.08
2018-02-04T04:05:32.342Z,1.12
2018-02-04T04:06:41.171Z,1.11
2018-02-04T04:07:49.995Z,0.97
2018-02-04T04:08:59.022Z,1.08
2018-02-04T04:10:07.847Z,1.06
2018-02-04T04:11:16.673Z,1
2018-02-04T04:12:25.497Z,1.04
2018-02-04T04:13:34.596Z,1.08
2018-02-04T04:14:43.521Z,1.04
2018-02-04T04:15:52.349Z,1.08
2018-02-04T04:17:01.176Z,1.15
2018-02-04T04:18:10.000Z,1.06
2018-02-04T04:19:18.829Z,1
2018-02-04T04:20:27.655Z,1.11
2018-02-04T04:21:36.484Z,1.09
2018-02-04T04:22:45.309Z,1.16
2018-02-04T04:23:54.134Z,1.05
2018-02-04T04:25:02.962Z,1.09
2018-02-04T04:26:11.885Z,1.06
2018-02-04T04:27:20.712Z,1.14
2018-02-04T04:28:29.535Z,1.04
2018-02-04T04:29:38.365Z,0.91
2018-02-04T04:30:47.191Z,0.93
2018-02-04T04:31:56.168Z,1.05
2018-02-04T04:33:05.272Z,0.88
2018-02-04T04:34:14.100Z,0.78
2018-02-04T04:35:22.921Z,0.73
2018-02-04T04:36:31.744Z,0.87
2018-02-04T04:37:40.572Z,0.79
2018-02-04T04:38:49.398Z,0.69
2018-02-04T04:39:58.225Z,0.58
2018-02-04T04:41:07.331Z,0.49
2018-02-04T04:42:16.162Z,0.51
2018-02-04T04:43:24.981Z,0.53
2018-02-04T04:44:33.809Z,0.47
2018-02-04T04:45:42.635Z,0.5
2018-02-04T04:46:51.462Z,0.44
2018-02-04T04:48:00.285Z,0.51
2018-02-04T04:49:09.260Z,0.57
2018-02-04T04:50:18.084Z,0.39
2018-02-04T04:51:26.911Z,0.44
2018-02-04T04:52:35.735Z,0.39
2018-02-04T04:53:44.562Z,0.42
2018-02-04T04:54:53.485Z,0.46
2018-02-04T04:56:02.311Z,0.39
2018-02-04T04:57:11.134Z,0.57
2018-02-04T04:58:20.232Z,0.53
2018-02-04T04:59:29.058Z,0.55
2018-02-04T05:00:38.085Z,0.55
2018-02-04T05:01:46.910Z,0.5
2018-02-04T05:02:55.734Z,0.57
2018-02-04T05:04:04.560Z,0.51
2018-02-04T05:05:13.386Z,0.55
2018-02-04T05:06:22.512Z,0.51
2018-02-04T05:07:31.340Z,0.68
2018-02-04T05:08:40.165Z,0.62
2018-02-04T05:09:48.988Z,0.68
2018-02-04T05:10:57.816Z,0.66
2018-02-04T05:12:07.565Z,0.75
2018-02-04T05:13:16.390Z,0.65
2018-02-04T05:14:25.217Z,0.68
2018-02-04T05:15:34.313Z,0.68
2018-02-04T05:16:43.140Z,0.61
2018-02-04T05:17:51.968Z,0.51
2018-02-04T05:19:00.794Z,0.53
2018-02-04T05:20:09.622Z,0.58
2018-02-04T05:21:18.454Z,0.55
2018-02-04T05:22:27.279Z,0.44
2018-02-04T05:23:36.155Z,0.53
2018-02-04T05:24:45.081Z,0.57
2018-02-04T05:25:53.906Z,0.61
2018-02-04T05:27:02.731Z,0.68
2018-02-04T05:28:11.556Z,0.73
2018-02-04T05:29:20.381Z,0.73
2018-02-04T05:30:29.206Z,0.69
2018-02-04T05:31:38.032Z,0.73
2018-02-04T05:32:46.856Z,0.7
2018-02-04T05:33:55.685Z,0.73
2018-02-04T05:35:04.511Z,0.69
2018-02-04T05:36:13.336Z,0.69
2018-02-04T05:37:22.160Z,0.76
2018-02-04T05:38:30.986Z,0.7
2018-02-04T05:39:39.812Z,0.75
2018-02-04T05:40:48.838Z,0.78
2018-02-04T05:41:57.663Z,0.75
2018-02-04T05:43:06.495Z,0.76
2018-02-04T05:44:15.321Z,0.69
2018-02-04T05:45:24.149Z,0.72
2018-02-04T05:46:33.073Z,0.76
2018-02-04T05:47:41.900Z,0.75
2018-02-04T05:48:50.725Z,0.9
2018-02-04T05:49:59.550Z,0.88
2018-02-04T05:51:08.376Z,0.88
2018-02-04T05:52:17.577Z,0.88
2018-02-04T05:53:26.402Z,0.86
2018-02-04T05:54:35.505Z,0.96
2018-02-04T05:55:44.334Z,1.06
2018-02-04T05:56:53.161Z,1
2018-02-04T05:58:02.085Z,1.08
2018-02-04T05:59:10.910Z,1
2018-02-04T06:00:19.739Z,0.94
2018-02-04T06:01:28.566Z,0.9
2018-02-04T06:02:37.391Z,0.93
2018-02-04T06:03:46.542Z,0.93
2018-02-04T06:04:55.367Z,0.93
2018-02-04T06:06:04.195Z,0.93
2018-02-04T06:07:13.021Z,0.93
2018-02-04T06:08:21.875Z,0.79
2018-02-04T06:09:30.774Z,0.79
2018-02-04T06:10:39.597Z,0.87
2018-02-04T06:11:48.421Z,0.79
2018-02-04T06:12:57.247Z,0.88
2018-02-04T06:14:06.073Z,0.93
2018-02-04T06:15:14.900Z,0.88
2018-02-04T06:16:23.727Z,0.93
2018-02-04T06:17:32.552Z,1
2018-02-04T06:18:41.380Z,0.91
2018-02-04T06:19:50.205Z,1.02
2018-02-04T06:20:59.184Z,1.06
2018-02-04T06:22:08.017Z,1
2018-02-04T06:23:16.842Z,1.04
2018-02-04T06:24:25.670Z,1.08
2018-02-04T06:25:34.497Z,1.06
2018-02-04T06:26:43.624Z,1.16
2018-02-04T06:27:52.453Z,1.18
2018-02-04T06:29:01.278Z,1.12
2018-02-04T06:30:10.104Z,1.2
2018-02-04T06:31:18.928Z,1.2
2018-02-04T06:32:27.908Z,1.15
2018-02-04T06:33:36.733Z,1.16
2018-02-04T06:34:45.558Z,1.2
2018-02-04T06:35:54.388Z,1.23
2018-02-04T06:37:03.209Z,1.23
2018-02-04T06:38:12.184Z,1.15
2018-02-04T06:39:21.009Z,1.22
2018-02-04T06:40:29.833Z,1.3
2018-02-04T06:41:38.660Z,1.26
2018-02-04T06:42:47.549Z,1.24
2018-02-04T06:43:56.466Z,1.23
2018-02-04T06:45:05.297Z,1.18
2018-02-04T06:46:14.406Z,1.26
2018-02-04T06:47:23.234Z,1.22
2018-02-04T06:48:32.063Z,1.27
2018-02-04T06:49:40.888Z,1.29
2018-02-04T06:50:49.715Z,1.24
2018-02-04T06:51:58.544Z,1.32
2018-02-04T06:53:07.369Z,1.22
2018-02-04T06:54:16.196Z,1.15
2018-02-04T06:55:25.173Z,1.16
2018-02-04T06:56:33.999Z,1.2
2018-02-04T06:57:43.098Z,1.12
2018-02-04T06:58:52.251Z,1.18
2018-02-04T07:00:01.350Z,1.18
2018-02-04T07:01:10.176Z,1.18
2018-02-04T07:02:19.004Z,1.14
2018-02-04T07:03:27.831Z,1.2
2018-02-04T07:04:36.659Z,1.14
2018-02-04T07:05:45.489Z,1.22
2018-02-04T07:06:54.737Z,1.29
2018-02-04T07:08:03.564Z,1.3
2018-02-04T07:09:12.391Z,1.26
2018-02-04T07:10:21.219Z,1.15
2018-02-04T07:11:30.044Z,1.2
2018-02-04T07:12:39.021Z,1.18
2018-02-04T07:13:47.848Z,1.16
2018-02-04T07:14:56.673Z,1.18
2018-02-04T07:16:05.501Z,1.18
2018-02-04T07:17:14.331Z,1.2
2018-02-04T07:18:23.202Z,1.15
2018-02-04T07:19:32.029Z,1.16
2018-02-04T07:20:40.856Z,1.26
2018-02-04T07:21:49.684Z,1.26
2018-02-04T07:22:58.505Z,1.22
2018-02-04T07:24:07.483Z,1.23
2018-02-04T07:25:16.308Z,1.18
2018-02-04T07:26:25.137Z,1.05
2018-02-04T07:27:33.964Z,1.15
2018-02-04T07:28:42.791Z,1.2
2018-02-04T07:29:51.618Z,1.2
2018-02-04T07:31:00.443Z,1.27
2018-02-04T07:32:09.271Z,1.32
2018-02-04T07:33:18.097Z,1.41
2018-02-04T07:34:26.982Z,1.3
2018-02-04T07:35:35.851Z,1.29
2018-02-04T07:36:44.676Z,1.44
2018-02-04T07:37:53.503Z,1.37
2018-02-04T07:39:02.330Z,1.37
2018-02-04T07:40:11.157Z,1.3
2018-02-04T07:41:20.083Z,1.3
2018-02-04T07:42:28.909Z,1.2
2018-02-04T07:43:37.736Z,1.15
2018-02-04T07:44:46.560Z,1.04
2018-02-04T07:45:55.384Z,1.08
2018-02-04T07:47:04.261Z,1.11
2018-02-04T07:48:13.087Z,1.18
2018-02-04T07:49:21.914Z,1.09
2018-02-04T07:50:30.741Z,1.06
2018-02-04T07:51:39.565Z,1.09
2018-02-04T07:52:48.392Z,1.08
2018-02-04T07:53:57.217Z,1.09
2018-02-04T07:55:06.042Z,1.14
2018-02-04T07:56:14.867Z,1.05
2018-02-04T07:57:23.691Z,1.06
2018-02-04T07:58:32.817Z,1.09
2018-02-04T07:59:41.643Z,1.22
2018-02-04T08:00:50.761Z,1.15
2018-02-04T08:01:59.586Z,1.23
2018-02-04T08:03:08.415Z,1.41
2018-02-04T08:04:17.390Z,1.29
2018-02-04T08:05:26.217Z,1.42
2018-02-04T08:06:35.044Z,1.37
2018-02-04T08:07:43.873Z,1.3
2018-02-04T08:08:52.979Z,1.27
2018-02-04T08:10:01.861Z,1.34
2018-02-04T08:11:10.686Z,1.3
2018-02-04T08:12:19.512Z,1.29
2018-02-04T08:13:28.340Z,1.27
2018-02-04T08:14:37.437Z,1.24
2018-02-04T08:15:46.563Z,1.24
2018-02-04T08:16:55.390Z,1.41
2018-02-04T08:18:04.218Z,1.24
2018-02-04T08:19:13.045Z,1.29
2018-02-04T08:20:21.874Z,1.24
2018-02-04T08:21:30.848Z,1.32
2018-02-04T08:22:39.948Z,1.26
2018-02-04T08:23:48.775Z,1.3
2018-02-04T08:24:57.602Z,1.37
2018-02-04T08:26:06.430Z,1.36
2018-02-04T08:27:15.407Z,1.27
2018-02-04T08:28:24.236Z,1.34
2018-02-04T08:29:33.070Z,1.34
2018-02-04T08:30:42.455Z,1.3
2018-02-04T08:31:51.280Z,1.33
2018-02-04T08:33:00.407Z,1.22
2018-02-04T08:34:09.234Z,1.23
2018-02-04T08:35:18.065Z,1.15
2018-02-04T08:36:26.892Z,1.18
2018-02-04T08:37:35.718Z,1.18
2018-02-04T08:38:44.697Z,1.15
2018-02-04T08:39:53.523Z,1.27
2018-02-04T08:41:02.351Z,1.2
2018-02-04T08:42:11.176Z,1.26
2018-02-04T08:43:20.004Z,1.22
2018-02-04T08:44:29.235Z,1.3
2018-02-04T08:45:38.060Z,1.36
2018-02-04T08:46:46.886Z,1.45
2018-02-04T08:47:55.719Z,1.5
2018-02-04T08:49:04.829Z,1.45
2018-02-04T08:50:13.754Z,1.47
2018-02-04T08:51:22.583Z,1.48
2018-02-04T08:52:31.686Z,1.48
2018-02-04T08:53:40.514Z,1.51
2018-02-04T08:54:49.341Z,1.59
2018-02-04T08:55:58.273Z,1.55
2018-02-04T08:57:07.099Z,1.52
2018-02-04T08:58:15.924Z,1.62
2018-02-04T08:59:24.756Z,1.63
2018-02-04T09:00:33.591Z,1.63
2018-02-04T09:01:42.539Z,1.54
2018-02-04T09:02:51.344Z,1.55
2018-02-04T09:04:00.174Z,1.59
2018-02-04T09:05:09.004Z,1.58
2018-02-04T09:06:17.829Z,1.51
2018-02-04T09:07:26.982Z,1.47
2018-02-04T09:08:35.810Z,1.48
2018-02-04T09:09:44.637Z,1.47
2018-02-04T09:10:53.464Z,1.51
2018-02-04T09:12:02.568Z,1.47
2018-02-04T09:13:11.393Z,1.55
2018-02-04T09:14:20.221Z,1.58
2018-02-04T09:15:29.099Z,1.48
2018-02-04T09:16:37.925Z,1.5
2018-02-04T09:17:46.758Z,1.48
2018-02-04T09:18:55.981Z,1.5
2018-02-04T09:20:04.828Z,1.65
2018-02-04T09:21:13.654Z,1.58
2018-02-04T09:22:22.491Z,1.72
2018-02-04T09:23:31.343Z,1.62
2018-02-04T09:24:40.475Z,1.52
2018-02-04T09:25:49.876Z,1.58
2018-02-04T09:26:58.727Z,1.76
2018-02-04T09:28:07.549Z,1.8
2018-02-04T09:29:16.378Z,1.69
2018-02-04T09:30:25.296Z,1.8
2018-02-04T09:31:34.121Z,1.87
2018-02-04T09:32:42.956Z,1.79
2018-02-04T09:33:51.778Z,1.88
2018-02-04T09:35:00.604Z,1.83
2018-02-04T09:36:09.431Z,1.9
2018-02-04T09:37:18.332Z,1.86
2018-02-04T09:38:27.162Z,1.93
2018-02-04T09:39:35.988Z,1.9
2018-02-04T09:40:44.816Z,1.79
2018-02-04T09:41:53.797Z,1.7
2018-02-04T09:43:02.625Z,1.73
2018-02-04T09:44:11.501Z,1.76
2018-02-04T09:45:20.277Z,1.73
2018-02-04T09:46:29.109Z,1.7
2018-02-04T09:47:37.937Z,1.72
2018-02-04T09:48:46.762Z,1.76
2018-02-04T09:49:55.587Z,1.87
2018-02-04T09:51:04.435Z,1.83
2018-02-04T09:52:13.535Z,1.88
2018-02-04T09:53:22.411Z,1.93
2018-02-04T09:54:31.238Z,1.93
2018-02-04T09:55:40.085Z,1.98
2018-02-04T09:56:48.922Z,1.9
2018-02-04T09:57:57.746Z,1.83
2018-02-04T09:59:06.638Z,1.81
2018-02-04T10:00:15.465Z,1.7
2018-02-04T10:01:24.296Z,1.81
2018-02-04T10:02:33.153Z,1.8
2018-02-04T10:03:41.986Z,1.81
2018-02-04T10:04:50.814Z,1.79
2018-02-04T10:06:00.030Z,1.87
2018-02-04T10:07:08.858Z,2.02
2018-02-04T10:08:17.682Z,2.06
2018-02-04T10:09:27.092Z,1.87
2018-02-04T10:10:36.069Z,2.12
2018-02-04T10:11:44.996Z,2.06
2018-02-04T10:12:54.072Z,2.25
2018-02-04T10:14:03.158Z,2.25
2018-02-04T10:15:12.504Z,2.23
2018-02-04T10:16:21.632Z,2.24
2018-02-04T10:17:30.509Z,2.18
2018-02-04T10:18:39.430Z,2.24
2018-02-04T10:19:48.443Z,2.34
2018-02-04T10:20:57.877Z,2.35
2018-02-04T10:22:06.942Z,2.3
2018-02-04T10:23:15.885Z,2.28
2018-02-04T10:24:24.815Z,2.25
2018-02-04T10:25:34.280Z,2.28
2018-02-04T10:26:44.266Z,2.25
2018-02-04T10:27:53.843Z,2.3
2018-02-04T10:29:02.706Z,2.38
2018-02-04T10:30:11.603Z,2.42
2018-02-04T10:31:20.599Z,2.46
2018-02-04T10:32:29.853Z,2.49
2018-02-04T10:33:38.775Z,2.41
2018-02-04T10:34:47.665Z,2.46
2018-02-04T10:35:56.572Z,2.41
2018-02-04T10:37:05.471Z,2.52
2018-02-04T10:38:14.452Z,2.53
2018-02-04T10:39:23.460Z,2.6
2018-02-04T10:40:32.670Z,2.66
2018-02-04T10:41:41.548Z,2.64
2018-02-04T10:42:50.535Z,2.56
2018-02-04T10:43:59.420Z,2.6
2018-02-04T10:45:08.313Z,2.56
2018-02-04T10:46:17.195Z,2.67
2018-02-04T10:47:26.434Z,2.89
2018-02-04T10:48:35.334Z,2.81
2018-02-04T10:49:44.212Z,2.74
2018-02-04T10:50:53.111Z,2.77
2018-02-04T10:52:02.012Z,2.74
2018-02-04T10:53:11.257Z,2.69
2018-02-04T10:54:20.167Z,2.64
2018-02-04T10:55:29.104Z,2.64
2018-02-04T10:56:37.947Z,2.64
2018-02-04T10:57:46.773Z,2.69
2018-02-04T10:58:55.753Z,2.77
2018-02-04T11:00:04.585Z,2.89
2018-02-04T11:01:13.413Z,3.11
2018-02-04T11:02:22.293Z,3.05
2018-02-04T11:03:31.281Z,3.06
2018-02-04T11:04:40.254Z,3.08
2018-02-04T11:05:49.422Z,3.18
2018-02-04T11:06:58.317Z,3.17
2018-02-04T11:08:07.193Z,3.14
2018-02-04T11:09:16.067Z,3.14
2018-02-04T11:10:25.119Z,3.13
2018-02-04T11:11:33.933Z,3.15
2018-02-04T11:12:42.812Z,3.18
2018-02-04T11:13:51.699Z,3.2
2018-02-04T11:15:00.574Z,3.31
2018-02-04T11:16:09.483Z,3.35
2018-02-04T11:17:18.665Z,3.13
2018-02-04T11:18:27.566Z,3.13
2018-02-04T11:19:36.498Z,3.11
2018-02-04T11:20:45.367Z,3.1
2018-02-04T11:21:54.697Z,3.26
2018-02-04T11:23:03.784Z,3.24
2018-02-04T11:24:12.941Z,3.31
2018-02-04T11:25:21.799Z,3.31
2018-02-04T11:26:30.629Z,3.31
2018-02-04T11:27:39.515Z,3.26
2018-02-04T11:28:48.393Z,3.35
2018-02-04T11:29:57.935Z,3.42
2018-02-04T11:31:07.311Z,3.4
2018-02-04T11:32:16.544Z,3.29
2018-02-04T11:33:55.214Z,3.42
2018-02-04T11:35:04.193Z,3.39
2018-02-04T11:36:13.157Z,3.35
2018-02-04T11:37:22.066Z,3.45
2018-02-04T11:38:31.397Z,3.52
2018-02-04T11:39:40.464Z,3.45
2018-02-04T11:40:50.036Z,3.52
2018-02-04T11:41:59.313Z,3.69
2018-02-04T11:43:08.254Z,3.52
2018-02-04T11:44:17.657Z,3.72
2018-02-04T11:45:27.213Z,3.54
2018-02-04T11:46:36.121Z,3.66
2018-02-04T11:47:45.023Z,3.54
2018-02-04T11:48:54.114Z,3.6
2018-02-04T11:50:03.309Z,3.6
2018-02-04T11:51:12.488Z,3.69
2018-02-04T11:52:21.592Z,3.66
2018-02-04T11:53:30.449Z,3.62
2018-02-04T11:54:39.546Z,3.68
2018-02-04T11:55:48.393Z,3.48
2018-02-04T11:56:57.223Z,3.55
2018-02-04T11:58:06.055Z,3.79
2018-02-04T11:59:14.952Z,3.54
2018-02-04T12:00:23.810Z,3.68
2018-02-04T12:01:32.737Z,3.5
2018-02-04T12:02:41.566Z,3.58
2018-02-04T12:03:50.396Z,3.57
2018-02-04T12:04:59.224Z,3.26
2018-02-04T12:06:08.053Z,3.08
2018-02-04T12:07:17.012Z,3.32
2018-02-04T12:08:25.811Z,3.17
2018-02-04T12:09:34.638Z,3.11
2018-02-04T12:10:43.740Z,3.08
2018-02-04T12:11:52.569Z,3.06
2018-02-04T12:13:01.398Z,3.02
2018-02-04T12:14:10.233Z,3.08
2018-02-04T12:15:19.056Z,3.32
2018-02-04T12:16:27.886Z,3.36
2018-02-04T12:17:36.716Z,3.36
2018-02-04T12:18:45.692Z,3.32
2018-02-04T12:19:54.521Z,3.55
2018-02-04T12:21:03.349Z,3.47
2018-02-04T12:22:12.175Z,3.4
2018-02-04T12:23:21.004Z,3.35
2018-02-04T12:24:29.934Z,3.35
2018-02-04T12:25:38.763Z,3.18
2018-02-04T12:26:47.591Z,3.11
2018-02-04T12:27:56.420Z,3.35
2018-02-04T12:29:05.248Z,3.36
2018-02-04T12:30:14.074Z,3.24
2018-02-04T12:31:22.904Z,3.54
2018-02-04T12:32:31.733Z,3.33
2018-02-04T12:33:40.559Z,3.31
2018-02-04T12:34:49.393Z,3.23
2018-02-04T12:35:58.793Z,3.23
2018-02-04T12:37:07.621Z,3.35
2018-02-04T12:38:16.450Z,3.23
2018-02-04T12:39:25.280Z,3.11
2018-02-04T12:40:34.109Z,3.15
2018-02-04T12:41:42.938Z,3.05
2018-02-04T12:42:51.768Z,3.03
2018-02-04T12:44:00.601Z,3.1
2018-02-04T12:45:09.426Z,3.11
2018-02-04T12:46:18.252Z,3.13
2018-02-04T12:47:27.088Z,3.17
2018-02-04T12:48:35.908Z,3.17
2018-02-04T12:49:44.736Z,3.24
2018-02-04T12:50:53.565Z,3.42
2018-02-04T12:52:02.394Z,3.54
2018-02-04T12:53:11.321Z,3.4
2018-02-04T12:54:20.148Z,3.28
2018-02-04T12:55:28.979Z,3.18
2018-02-04T12:56:37.807Z,3.1
2018-02-04T12:57:46.637Z,3.08
2018-02-04T12:58:55.764Z,3.08
2018-02-04T13:00:04.593Z,2.97
2018-02-04T13:01:13.423Z,3.02
2018-02-04T13:02:22.251Z,3.11
2018-02-04T13:03:31.077Z,3.14
2018-02-04T13:04:39.907Z,3.14
2018-02-04T13:05:48.742Z,3.06
2018-02-04T13:06:57.561Z,3.15
2018-02-04T13:08:06.390Z,3.33
2018-02-04T13:09:15.216Z,3.31
2018-02-04T13:10:24.144Z,3.2
2018-02-04T13:11:32.973Z,3.13
2018-02-04T13:12:41.797Z,3.13
2018-02-04T13:13:50.626Z,3.11
2018-02-04T13:14:59.457Z,3.1
2018-02-04T13:16:08.295Z,3.1
2018-02-04T13:17:17.128Z,3.05
2018-02-04T13:18:25.958Z,2.93
2018-02-04T13:19:35.058Z,2.97
2018-02-04T13:20:43.884Z,2.97
2018-02-04T13:21:53.014Z,2.96
2018-02-04T13:23:01.840Z,3.02
2018-02-04T13:24:10.942Z,2.97
2018-02-04T13:25:19.771Z,2.93
2018-02-04T13:26:28.597Z,3.21
2018-02-04T13:27:37.424Z,3.11
2018-02-04T13:28:46.252Z,3.06
2018-02-04T13:29:55.129Z,3.1
2018-02-04T13:31:03.962Z,3.26
2018-02-04T13:32:12.793Z,3.2
2018-02-04T13:33:21.824Z,3.05
2018-02-04T13:34:30.650Z,2.97
2018-02-04T13:35:39.479Z,2.93
2018-02-04T13:36:48.307Z,2.9
2018-02-04T13:37:57.133Z,2.9
2018-02-04T13:39:06.387Z,2.84
2018-02-04T13:40:15.217Z,2.93
2018-02-04T13:41:24.045Z,2.96
2018-02-04T13:42:32.873Z,3.08
2018-02-04T13:43:41.757Z,3.11
2018-02-04T13:44:50.940Z,3.06
2018-02-04T13:45:59.962Z,3.11
2018-02-04T13:47:08.885Z,3.05
2018-02-04T13:48:17.791Z,2.9
2018-02-04T13:49:26.685Z,2.79
2018-02-04T13:50:35.624Z,2.81
2018-02-04T13:51:44.595Z,2.82
2018-02-04T13:52:53.454Z,2.85
2018-02-04T13:54:02.334Z,2.92
2018-02-04T13:55:11.242Z,2.9
2018-02-04T13:56:20.179Z,2.75
2018-02-04T13:57:29.056Z,2.89
2018-02-04T13:58:37.918Z,2.92
2018-02-04T13:59:46.781Z,2.99
2018-02-04T14:00:55.686Z,3.11
2018-02-04T14:02:05.466Z,3.05
2018-02-04T14:03:14.360Z,2.93
2018-02-04T14:04:23.242Z,3.11
2018-02-04T14:05:32.138Z,3
2018-02-04T14:06:40.968Z,3.05
2018-02-04T14:07:49.835Z,3
2018-02-04T14:08:58.950Z,2.96
2018-02-04T14:10:07.779Z,3.02
2018-02-04T14:11:16.607Z,2.97
2018-02-04T14:12:25.435Z,2.96
2018-02-04T14:13:34.694Z,3.03
2018-02-04T14:14:43.563Z,3.1
2018-02-04T14:15:52.392Z,3
2018-02-04T14:17:01.515Z,2.97
2018-02-04T14:18:10.401Z,2.95
2018-02-04T14:19:19.335Z,2.92
2018-02-04T14:20:28.160Z,2.92
2018-02-04T14:21:37.083Z,2.92
2018-02-04T14:22:45.919Z,2.95
2018-02-04T14:23:55.025Z,2.96
2018-02-04T14:25:03.887Z,2.96
2018-02-04T14:26:12.737Z,2.97
2018-02-04T14:27:21.567Z,3
2018-02-04T14:28:30.414Z,2.96
2018-02-04T14:29:39.283Z,3.03
2018-02-04T14:30:48.110Z,3.03
2018-02-04T14:31:56.940Z,2.99
2018-02-04T14:33:05.838Z,2.97
2018-02-04T14:34:14.688Z,3.03
2018-02-04T14:35:23.800Z,3.06
2018-02-04T14:36:32.796Z,2.99
2018-02-04T14:37:41.645Z,2.93
2018-02-04T14:38:50.472Z,3.03
2018-02-04T14:39:59.302Z,3.02
2018-02-04T14:41:08.132Z,3.1
2018-02-04T14:42:17.233Z,3.15
2018-02-04T14:43:26.062Z,2.95
2018-02-04T14:44:34.891Z,2.93
2018-02-04T14:45:43.718Z,2.87
2018-02-04T14:46:52.546Z,2.9
2018-02-04T14:48:01.527Z,3.02
2018-02-04T14:49:10.352Z,2.99
2018-02-04T14:50:19.180Z,3.14
2018-02-04T14:51:28.008Z,3.1
2018-02-04T14:52:36.837Z,3
2018-02-04T14:53:45.714Z,3.08
2018-02-04T14:54:54.539Z,3.05
2018-02-04T14:56:03.366Z,3
2018-02-04T14:57:12.206Z,2.96
2018-02-04T14:58:21.022Z,2.97
2018-02-04T14:59:30.151Z,3.08
2018-02-04T15:00:38.978Z,3.08
2018-02-04T15:01:47.805Z,3.06
2018-02-04T15:02:56.633Z,2.95
2018-02-04T15:04:05.460Z,3.03
2018-02-04T15:05:14.293Z,2.96
2018-02-04T15:06:23.121Z,2.96
2018-02-04T15:07:31.948Z,3
2018-02-04T15:08:40.774Z,3.06
2018-02-04T15:09:49.602Z,3.05
2018-02-04T15:10:58.484Z,3
2018-02-04T15:12:07.545Z,2.97
2018-02-04T15:13:16.639Z,2.97
2018-02-04T15:14:25.466Z,3.03
2018-02-04T15:15:34.293Z,2.9
2018-02-04T15:16:43.148Z,2.95
2018-02-04T15:17:51.950Z,2.96
2018-02-04T15:19:00.777Z,2.96
2018-02-04T15:20:09.607Z,2.97
2018-02-04T15:21:18.437Z,2.97
2018-02-04T15:22:27.634Z,3.11
2018-02-04T15:23:36.468Z,2.93